Time;durP1;ratioP1;P1;durP2;ratioP2;P2;SDS_P1;SDS_P2;PMS_P1;PMS_P2;Temp;Humidity;BMP_temperature;BMP_pressure;BME280_temperature;BME280_humidity;BME280_pressure;Samples;Min_cycle;Max_cycle;Signal;HPM_P1;HPM_P2
2023/12/13 00:00:05;;;;;;;;;;;;;;;7.35;100.00;99535.66;5104391;28;20014;-42
2023/12/13 00:02:30;;;;;;;;;;;;;;;7.33;100.00;99531.50;5106127;28;19948;-41
2023/12/13 00:04:55;;;;;;;;;;;;;;;7.29;100.00;99524.88;5105367;28;19923;-42
2023/12/13 00:07:21;;;;;;;;;;;;;;;7.25;100.00;99517.25;5105028;28;20394;-42
2023/12/13 00:09:46;;;;;;;;;;;;;;;7.24;100.00;99522.78;5104313;28;19934;-43
2023/12/13 00:12:11;;;;;;;;;;;;;;;7.23;100.00;99524.63;5106957;28;20365;-43
2023/12/13 00:14:36;;;;;;;;;;;;;;;7.24;100.00;99526.31;5108317;28;20015;-42
2023/12/13 00:17:03;;;;;;;;;;;;;;;7.23;100.00;99519.28;5097244;28;20202;-41
2023/12/13 00:19:28;;;;;;;;;;;;;;;7.21;100.00;99524.00;5109858;28;19920;-41
2023/12/13 00:21:53;;;;;;;;;;;;;;;7.19;100.00;99528.72;5108946;28;19930;-42
2023/12/13 00:24:19;;;;;;;;;;;;;;;7.18;100.00;99527.06;5107511;28;20324;-42
2023/12/13 00:26:44;;;;;;;;;;;;;;;7.17;100.00;99520.06;5110021;28;19920;-42
2023/12/13 00:29:09;;;;;;;;;;;;;;;7.19;100.00;99512.66;5106809;28;19916;-41
2023/12/13 00:31:34;;;;;;;;;;;;;;;7.18;100.00;99519.03;5105772;28;19927;-42
2023/12/13 00:34:00;;;;;;;;;;;;;;;7.20;100.00;99517.00;5109797;28;19912;-42
2023/12/13 00:36:25;;;;;;;;;;;;;;;7.22;100.00;99522.97;5110409;28;20349;-42
2023/12/13 00:38:50;;;;;;;;;;;;;;;7.24;100.00;99528.13;5106305;28;19928;-43
2023/12/13 00:41:16;;;;;;;;;;;;;;;7.26;100.00;99518.88;5107892;28;19934;-42
2023/12/13 00:43:41;;;;;;;;;;;;;;;7.28;100.00;99521.38;5107430;28;19920;-41
2023/12/13 00:46:06;;;;;;;;;;;;;;;7.28;100.00;99526.72;5108668;28;20019;-41
2023/12/13 00:48:32;;;;;;;;;;;;;;;7.31;100.00;99523.66;5109061;28;19920;-41
2023/12/13 00:50:57;;;;;;;;;;;;;;;7.32;100.00;99524.50;5105688;28;19965;-41
2023/12/13 00:53:23;;;;;;;;;;;;;;;7.30;100.00;99524.69;5106189;28;20382;-41
2023/12/13 00:55:51;;;;;;;;;;;;;;;7.31;100.00;99528.19;5107849;28;19967;-40
2023/12/13 00:58:16;;;;;;;;;;;;;;;7.33;100.00;99524.31;5109636;28;19972;-42
2023/12/13 01:00:42;;;;;;;;;;;;;;;7.34;100.00;99525.13;5108248;28;19920;-42
2023/12/13 01:03:07;;;;;;;;;;;;;;;7.36;100.00;99528.44;5107726;28;19954;-41
2023/12/13 01:05:32;;;;;;;;;;;;;;;7.40;100.00;99519.03;5105410;28;19974;-42
2023/12/13 01:07:57;;;;;;;;;;;;;;;7.39;100.00;99517.34;5115393;28;19926;-42
2023/12/13 01:10:22;;;;;;;;;;;;;;;7.40;100.00;99519.03;5114602;28;19920;-43
2023/12/13 01:12:49;;;;;;;;;;;;;;;7.38;100.00;99511.19;5114301;28;20229;-42
2023/12/13 01:15:15;;;;;;;;;;;;;;;7.35;100.00;99510.75;5115205;28;20335;-42
2023/12/13 01:17:40;;;;;;;;;;;;;;;7.36;100.00;99510.53;5114976;28;20296;-40
2023/12/13 01:20:11;;;;;;;;;;;;;;;7.39;100.00;99509.31;5114471;28;19928;-41
2023/12/13 01:22:37;;;;;;;;;;;;;;;7.40;100.00;99519.03;5114917;28;19920;-41
2023/12/13 01:25:02;;;;;;;;;;;;;;;7.39;100.00;99512.81;5115366;28;19927;-42
2023/12/13 01:27:27;;;;;;;;;;;;;;;7.40;100.00;99513.66;5114985;28;19920;-44
2023/12/13 01:29:53;;;;;;;;;;;;;;;7.39;100.00;99518.16;5114457;28;19915;-42
2023/12/13 01:32:18;;;;;;;;;;;;;;;7.40;100.00;99522.53;5114371;28;19955;-42
2023/12/13 01:34:43;;;;;;;;;;;;;;;7.40;100.00;99530.56;5114324;28;20386;-40
2023/12/13 01:37:08;;;;;;;;;;;;;;;7.43;100.00;99516.78;5114307;28;20288;-43
2023/12/13 01:39:34;;;;;;;;;;;;;;;7.44;100.00;99521.09;5112642;28;20344;-42
2023/12/13 01:41:59;;;;;;;;;;;;;;;7.44;100.00;99525.63;5112930;28;20499;-42
2023/12/13 01:44:24;;;;;;;;;;;;;;;7.45;100.00;99522.78;5114458;28;20021;-41
2023/12/13 01:46:49;;;;;;;;;;;;;;;7.48;100.00;99522.38;5114066;28;19999;-40
2023/12/13 01:49:14;;;;;;;;;;;;;;;7.53;100.00;99526.31;5112594;28;19999;-42
2023/12/13 01:51:40;;;;;;;;;;;;;;;7.55;100.00;99527.75;5113678;28;19922;-41
2023/12/13 01:54:06;;;;;;;;;;;;;;;7.57;100.00;99528.41;5113821;28;20022;-42
2023/12/13 01:56:31;;;;;;;;;;;;;;;7.57;100.00;99527.59;5111881;28;19916;-42
2023/12/13 01:58:57;;;;;;;;;;;;;;;7.56;100.00;99517.91;5114192;28;19920;-42
2023/12/13 02:01:22;;;;;;;;;;;;;;;7.59;100.00;99530.91;5113974;28;19919;-43
2023/12/13 02:03:47;;;;;;;;;;;;;;;7.61;100.00;99531.50;5114633;28;19922;-42
2023/12/13 02:06:12;;;;;;;;;;;;;;;7.59;100.00;99529.03;5113199;28;19920;-41
2023/12/13 02:08:37;;;;;;;;;;;;;;;7.60;100.00;99530.69;5112667;28;20403;-42
2023/12/13 02:11:03;;;;;;;;;;;;;;;7.60;100.00;99519.16;5113889;28;20400;-42
2023/12/13 02:13:28;;;;;;;;;;;;;;;7.56;100.00;99518.72;5114961;28;19916;-43
2023/12/13 02:15:53;;;;;;;;;;;;;;;7.55;100.00;99527.75;5114376;28;19926;-42
2023/12/13 02:18:19;;;;;;;;;;;;;;;7.55;100.00;99517.06;5114831;28;19927;-43
2023/12/13 02:20:44;;;;;;;;;;;;;;;7.50;100.00;99524.84;5114368;28;20023;-42
2023/12/13 02:23:09;;;;;;;;;;;;;;;7.46;100.00;99516.38;5114047;28;20436;-42
2023/12/13 02:25:40;;;;;;;;;;;;;;;7.42;100.00;99522.31;5113985;28;20372;-41
2023/12/13 02:28:06;;;;;;;;;;;;;;;7.39;100.00;99522.69;5113361;28;19924;-42
2023/12/13 02:30:31;;;;;;;;;;;;;;;7.34;100.00;99519.78;5112484;28;19942;-42
2023/12/13 02:32:56;;;;;;;;;;;;;;;7.27;100.00;99509.03;5112804;28;19927;-42
2023/12/13 02:35:22;;;;;;;;;;;;;;;7.25;100.00;99516.41;5112433;28;19924;-41
2023/12/13 02:37:49;;;;;;;;;;;;;;;7.23;100.00;99507.75;5113038;28;20008;-41
2023/12/13 02:40:18;;;;;;;;;;;;;;;7.21;100.00;99510.63;5113264;28;19919;-42
2023/12/13 02:42:43;;;;;;;;;;;;;;;7.19;100.00;99512.66;5113110;28;19927;-41
2023/12/13 02:45:12;;;;;;;;;;;;;;;7.15;100.00;99506.03;5115224;28;20290;-42
2023/12/13 02:47:41;;;;;;;;;;;;;;;7.13;100.00;99513.41;5115578;28;20030;-42
2023/12/13 02:50:06;;;;;;;;;;;;;;;7.10;100.00;99516.47;5115037;28;20369;-42
2023/12/13 02:52:31;;;;;;;;;;;;;;;7.10;100.00;99523.69;5114477;28;19973;-42
2023/12/13 02:54:57;;;;;;;;;;;;;;;7.05;100.00;99513.56;5114004;28;19920;-43
2023/12/13 02:57:22;;;;;;;;;;;;;;;7.03;100.00;99523.63;5113276;28;19935;-41
2023/12/13 02:59:47;;;;;;;;;;;;;;;6.99;100.00;99522.34;5113675;28;19927;-42
2023/12/13 03:02:12;;;;;;;;;;;;;;;6.98;100.00;99518.84;5109434;28;20349;-41
2023/12/13 03:04:38;;;;;;;;;;;;;;;6.97;100.00;99529.72;5103158;28;20461;-40
2023/12/13 03:07:04;;;;;;;;;;;;;;;6.96;100.00;99528.09;5112399;28;20353;-42
2023/12/13 03:09:29;;;;;;;;;;;;;;;6.96;100.00;99522.75;5112753;28;20337;-42
2023/12/13 03:11:55;;;;;;;;;;;;;;;6.94;100.00;99527.44;5112846;28;19924;-42
2023/12/13 03:14:20;;;;;;;;;;;;;;;6.94;100.00;99524.78;5113100;28;20439;-42
2023/12/13 03:16:45;;;;;;;;;;;;;;;6.93;100.00;99520.44;5112585;28;19920;-42
2023/12/13 03:19:10;;;;;;;;;;;;;;;6.94;100.00;99516.75;5112628;28;19920;-42
2023/12/13 03:21:35;;;;;;;;;;;;;;;6.95;100.00;99518.41;5111906;28;19942;-43
2023/12/13 03:24:01;;;;;;;;;;;;;;;6.96;100.00;99514.72;5112619;28;19920;-42
2023/12/13 03:26:26;;;;;;;;;;;;;;;6.96;100.00;99514.72;5109763;28;19919;-42
2023/12/13 03:28:51;;;;;;;;;;;;;;;6.96;100.00;99517.41;5112267;28;19920;-43
2023/12/13 03:31:16;;;;;;;;;;;;;;;6.97;100.00;99521.72;5112316;28;19955;-41
2023/12/13 03:33:42;;;;;;;;;;;;;;;6.97;100.00;99521.72;5112340;28;19959;-42
2023/12/13 03:36:12;;;;;;;;;;;;;;;6.97;100.00;99514.50;5112026;28;19919;-41
2023/12/13 03:38:38;;;;;;;;;;;;;;;7.00;100.00;99518.66;5111696;28;19920;-42
2023/12/13 03:41:03;;;;;;;;;;;;;;;7.02;100.00;99512.09;5112076;28;19932;-42
2023/12/13 03:43:28;;;;;;;;;;;;;;;6.99;100.00;99519.69;5115469;28;19963;-41
2023/12/13 03:45:53;;;;;;;;;;;;;;;7.00;100.00;99507.94;5116169;28;19927;-42
2023/12/13 03:48:19;;;;;;;;;;;;;;;7.02;100.00;99511.28;5116188;28;19927;-43
2023/12/13 03:50:44;;;;;;;;;;;;;;;7.04;100.00;99511.91;5116167;28;19919;-41
2023/12/13 03:53:09;;;;;;;;;;;;;;;7.04;100.00;99511.91;5116046;28;19920;-43
2023/12/13 03:55:34;;;;;;;;;;;;;;;7.02;100.00;99516.63;5114439;28;19920;-42
2023/12/13 03:57:59;;;;;;;;;;;;;;;7.06;100.00;99507.19;5115938;28;19927;-42
2023/12/13 04:00:25;;;;;;;;;;;;;;;7.07;100.00;99498.16;5115998;28;20000;-42
2023/12/13 04:02:50;;;;;;;;;;;;;;;7.11;100.00;99510.13;5115483;28;19919;-42
2023/12/13 04:05:15;;;;;;;;;;;;;;;7.15;100.00;99499.88;5114769;28;19919;-42
2023/12/13 04:07:40;;;;;;;;;;;;;;;7.14;100.00;99496.38;5114993;28;20002;-42
2023/12/13 04:10:06;;;;;;;;;;;;;;;7.14;100.00;99504.38;5115477;28;19919;-42
2023/12/13 04:12:31;;;;;;;;;;;;;;;7.15;100.00;99505.22;5115587;28;19924;-42
2023/12/13 04:14:56;;;;;;;;;;;;;;;7.18;100.00;99499.47;5116168;28;20346;-41
2023/12/13 04:17:21;;;;;;;;;;;;;;;7.22;100.00;99496.22;5115594;28;20444;-42
2023/12/13 04:19:46;;;;;;;;;;;;;;;7.25;100.00;99495.84;5115637;28;20413;-41
2023/12/13 04:22:12;;;;;;;;;;;;;;;7.23;100.00;99500.53;5110221;28;20031;-42
2023/12/13 04:24:37;;;;;;;;;;;;;;;7.22;100.00;99501.56;5111227;28;19959;-43
2023/12/13 04:27:02;;;;;;;;;;;;;;;7.23;100.00;99489.84;5114788;28;19920;-42
2023/12/13 04:29:28;;;;;;;;;;;;;;;7.29;100.00;99490.09;5115586;28;19927;-41
2023/12/13 04:31:53;;;;;;;;;;;;;;;7.25;100.00;99490.47;5115230;28;19958;-43
2023/12/13 04:34:18;;;;;;;;;;;;;;;7.28;100.00;99488.44;5115407;28;19958;-42
2023/12/13 04:36:43;;;;;;;;;;;;;;;7.25;100.00;99492.34;5115556;28;19967;-41
2023/12/13 04:39:09;;;;;;;;;;;;;;;7.31;100.00;99501.44;5114811;28;19955;-41
2023/12/13 04:41:37;;;;;;;;;;;;;;;7.28;100.00;99488.44;5115415;28;20442;-41
2023/12/13 04:44:02;;;;;;;;;;;;;;;7.26;100.00;99483.28;5115353;28;19916;-40
2023/12/13 04:46:27;;;;;;;;;;;;;;;7.20;100.00;99495.59;5110934;28;19927;-42
2023/12/13 04:48:53;;;;;;;;;;;;;;;7.19;100.00;99485.91;5113483;28;19920;-41
2023/12/13 04:51:18;;;;;;;;;;;;;;;7.16;100.00;99486.31;5115067;28;19942;-41
2023/12/13 04:53:43;;;;;;;;;;;;;;;7.15;100.00;99483.81;5114126;28;19915;-40
2023/12/13 04:56:10;;;;;;;;;;;;;;;7.15;100.00;99492.66;5114377;28;19973;-42
2023/12/13 04:58:35;;;;;;;;;;;;;;;7.15;100.00;99495.34;5115521;28;19918;-42
2023/12/13 05:01:00;;;;;;;;;;;;;;;7.14;100.00;99487.53;5114552;28;19928;-43
2023/12/13 05:03:28;;;;;;;;;;;;;;;7.15;100.00;99500.69;5114078;28;19928;-41
2023/12/13 05:05:53;;;;;;;;;;;;;;;7.15;100.00;99494.50;5115235;28;20306;-41
2023/12/13 05:08:18;;;;;;;;;;;;;;;7.15;100.00;99481.97;5114623;28;20024;-42
2023/12/13 05:10:43;;;;;;;;;;;;;;;7.19;100.00;99495.78;5112952;28;19930;-41
2023/12/13 05:13:09;;;;;;;;;;;;;;;7.21;100.00;99497.25;5114641;28;19926;-42
2023/12/13 05:15:34;;;;;;;;;;;;;;;7.24;100.00;99494.19;5114494;28;19972;-41
2023/12/13 05:17:59;;;;;;;;;;;;;;;7.29;100.00;99495.44;5110671;28;20216;-42
2023/12/13 05:20:25;;;;;;;;;;;;;;;7.32;100.00;99493.22;5114211;28;19920;-43
2023/12/13 05:22:50;;;;;;;;;;;;;;;7.36;100.00;99497.16;5114581;28;19920;-41
2023/12/13 05:25:15;;;;;;;;;;;;;;;7.36;100.00;99497.16;5114629;28;19960;-41
2023/12/13 05:27:42;;;;;;;;;;;;;;;7.33;100.00;99489.50;5113995;28;19920;-42
2023/12/13 05:30:08;;;;;;;;;;;;;;;7.35;100.00;99495.50;5114082;28;19927;-41
2023/12/13 05:32:33;;;;;;;;;;;;;;;7.36;100.00;99501.69;5113269;28;19942;-42
2023/12/13 05:34:58;;;;;;;;;;;;;;;7.36;100.00;99504.34;5109430;28;19924;-41
2023/12/13 05:37:23;;;;;;;;;;;;;;;7.38;100.00;99507.69;5112218;28;19924;-43
2023/12/13 05:39:48;;;;;;;;;;;;;;;7.37;100.00;99503.31;5111831;28;20270;-42
2023/12/13 05:42:14;;;;;;;;;;;;;;;7.38;100.00;99499.66;5110219;28;20297;-40
2023/12/13 05:44:39;;;;;;;;;;;;;;;7.41;100.00;99494.72;5111792;28;19920;-42
2023/12/13 05:47:04;;;;;;;;;;;;;;;7.45;100.00;99500.50;5111939;27;21301;-41
2023/12/13 05:49:29;;;;;;;;;;;;;;;7.43;100.00;99503.38;5116778;27;20274;-40
2023/12/13 05:51:55;;;;;;;;;;;;;;;7.47;100.00;99498.47;5113998;27;20788;-41
2023/12/13 05:54:20;;;;;;;;;;;;;;;7.41;100.00;99494.72;5111098;28;20292;-40
2023/12/13 05:56:45;;;;;;;;;;;;;;;7.43;100.00;99503.38;5109350;28;19963;-41
2023/12/13 05:59:10;;;;;;;;;;;;;;;7.41;100.00;99504.59;5109587;28;19965;-42
2023/12/13 06:01:36;;;;;;;;;;;;;;;7.43;100.00;99507.91;5106189;28;19971;-43
2023/12/13 06:04:01;;;;;;;;;;;;;;;7.40;100.00;99509.13;5111885;28;20405;-41
2023/12/13 06:06:26;;;;;;;;;;;;;;;7.45;100.00;99511.22;5110774;28;19919;-41
2023/12/13 06:08:51;;;;;;;;;;;;;;;7.46;100.00;99507.53;5109435;28;19956;-40
2023/12/13 06:11:16;;;;;;;;;;;;;;;7.49;100.00;99512.50;5111009;28;19927;-41
2023/12/13 06:13:42;;;;;;;;;;;;;;;7.48;100.00;99513.53;5112907;28;19930;-41
2023/12/13 06:16:12;;;;;;;;;;;;;;;7.48;100.00;99510.84;5109912;28;19979;-42
2023/12/13 06:18:37;;;;;;;;;;;;;;;7.51;100.00;99515.81;5098723;28;19926;-41
2023/12/13 06:21:02;;;;;;;;;;;;;;;7.51;100.00;99510.47;5113436;28;20010;-41
2023/12/13 06:23:27;;;;;;;;;;;;;;;7.54;100.00;99519.94;5113095;28;20281;-42
2023/12/13 06:25:53;;;;;;;;;;;;;;;7.54;100.00;99507.38;5112988;28;19920;-43
2023/12/13 06:28:18;;;;;;;;;;;;;;;7.52;100.00;99506.75;5113217;28;19920;-43
2023/12/13 06:30:43;;;;;;;;;;;;;;;7.54;100.00;99518.09;5111939;28;19972;-40
2023/12/13 06:33:08;;;;;;;;;;;;;;;7.55;100.00;99514.38;5108161;28;19919;-42
2023/12/13 06:35:33;;;;;;;;;;;;;;;7.55;100.00;99514.38;5110573;28;19920;-41
2023/12/13 06:37:59;;;;;;;;;;;;;;;7.56;100.00;99508.03;5111256;28;19920;-42
2023/12/13 06:40:24;;;;;;;;;;;;;;;7.59;100.00;99512.16;5112209;28;19973;-40
2023/12/13 06:42:49;;;;;;;;;;;;;;;7.58;100.00;99511.34;5112185;28;19927;-41
2023/12/13 06:45:15;;;;;;;;;;;;;;;7.57;100.00;99509.66;5108347;28;19928;-43
2023/12/13 06:47:40;;;;;;;;;;;;;;;7.59;100.00;99514.84;5107908;28;20341;-42
2023/12/13 06:50:05;;;;;;;;;;;;;;;7.61;100.00;99510.94;5108463;28;19919;-42
2023/12/13 06:52:31;;;;;;;;;;;;;;;7.61;100.00;99505.59;5112578;27;20374;-41
2023/12/13 06:54:56;;;;;;;;;;;;;;;7.62;100.00;99511.75;5110778;28;19926;-41
2023/12/13 06:57:21;;;;;;;;;;;;;;;7.65;100.00;99514.03;5112815;28;19924;-42
2023/12/13 06:59:47;;;;;;;;;;;;;;;7.65;100.00;99511.38;5113516;28;20297;-42
2023/12/13 07:02:12;;;;;;;;;;;;;;;7.68;100.00;99511.78;5113894;28;19920;-44
2023/12/13 07:04:37;;;;;;;;;;;;;;;7.67;100.00;99515.50;5108254;28;19973;-42
2023/12/13 07:07:03;;;;;;;;;;;;;;;7.69;100.00;99518.81;5111917;28;20343;-43
2023/12/13 07:09:29;;;;;;;;;;;;;;;7.68;100.00;99511.78;5109828;28;20329;-41
2023/12/13 07:11:54;;;;;;;;;;;;;;;7.66;100.00;99513.88;5112659;28;19941;-42
2023/12/13 07:14:19;;;;;;;;;;;;;;;7.69;100.00;99518.00;5113095;28;20262;-43
2023/12/13 07:16:44;;;;;;;;;;;;;;;7.66;100.00;99513.88;5113759;28;20396;-41
2023/12/13 07:19:10;;;;;;;;;;;;;;;7.68;100.00;99511.78;5114257;28;20377;-40
2023/12/13 07:21:35;;;;;;;;;;;;;;;7.70;100.00;99515.09;5113603;28;20011;-41
2023/12/13 07:24:00;;;;;;;;;;;;;;;7.74;100.00;99517.38;5112245;28;19919;-38
2023/12/13 07:26:25;;;;;;;;;;;;;;;7.74;100.00;99514.72;5113059;28;20407;-41
2023/12/13 07:28:51;;;;;;;;;;;;;;;7.76;100.00;99518.03;5116989;28;20417;-40
2023/12/13 07:31:16;;;;;;;;;;;;;;;7.75;100.00;99527.09;5112953;28;20321;-40
2023/12/13 07:33:41;;;;;;;;;;;;;;;7.77;100.00;99520.53;5113382;28;20400;-39
2023/12/13 07:36:07;;;;;;;;;;;;;;;7.78;100.00;99538.25;5114149;28;20357;-40
2023/12/13 07:38:32;;;;;;;;;;;;;;;7.78;100.00;99532.06;5112603;28;19920;-40
2023/12/13 07:40:57;;;;;;;;;;;;;;;7.79;100.00;99539.88;5112075;28;20031;-41
2023/12/13 07:43:23;;;;;;;;;;;;;;;7.79;100.00;99541.72;5110390;28;19919;-40
2023/12/13 07:45:54;;;;;;;;;;;;;;;7.79;100.00;99541.72;5111245;28;20373;-40
2023/12/13 07:48:23;;;;;;;;;;;;;;;7.81;100.00;99545.06;5112542;28;19915;-40
2023/12/13 07:50:49;;;;;;;;;;;;;;;7.86;100.00;99548.78;5112607;28;19920;-41
2023/12/13 07:53:14;;;;;;;;;;;;;;;7.85;100.00;99546.34;5113148;28;19926;-40
2023/12/13 07:55:39;;;;;;;;;;;;;;;7.86;100.00;99545.28;5115044;28;19928;-40
2023/12/13 07:58:04;;;;;;;;;;;;;;;7.87;100.00;99553.16;5113084;28;19932;-40
2023/12/13 08:00:30;;;;;;;;;;;;;;;7.90;100.00;99557.28;5111782;28;19926;-42
2023/12/13 08:02:55;;;;;;;;;;;;;;;7.90;100.00;99559.97;5113380;28;19920;-38
2023/12/13 08:05:20;;;;;;;;;;;;;;;7.90;100.00;99562.66;5117607;28;19920;-39
2023/12/13 08:07:46;;;;;;;;;;;;;;;7.94;100.00;99547.81;5118962;28;19928;-40
2023/12/13 08:10:11;;;;;;;;;;;;;;;8.00;100.00;99560.41;5118099;28;19926;-39
2023/12/13 08:12:36;;;;;;;;;;;;;;;7.98;100.00;99565.16;5117977;28;19923;-38
2023/12/13 08:15:02;;;;;;;;;;;;;;;8.04;100.00;99563.56;5113753;28;19939;-39
2023/12/13 08:17:29;;;;;;;;;;;;;;;7.99;100.00;99566.00;5112473;28;20484;-38
2023/12/13 08:19:54;;;;;;;;;;;;;;;8.02;100.00;99566.41;5112270;28;20010;-39
2023/12/13 08:22:20;;;;;;;;;;;;;;;8.07;100.00;99563.16;5114369;28;19959;-39
2023/12/13 08:24:45;;;;;;;;;;;;;;;8.04;100.00;99572.41;5114901;28;20379;-39
2023/12/13 08:27:10;;;;;;;;;;;;;;;8.05;100.00;99574.06;5114401;28;19915;-40
2023/12/13 08:29:35;;;;;;;;;;;;;;;8.07;100.00;99569.34;5115126;28;19998;-38
2023/12/13 08:32:01;;;;;;;;;;;;;;;8.09;100.00;99569.97;5121353;27;19958;-37
2023/12/13 08:34:26;;;;;;;;;;;;;;;8.08;100.00;99565.66;5116598;28;20393;-38
2023/12/13 08:36:51;;;;;;;;;;;;;;;8.11;100.00;99570.59;5115525;27;19916;-40
2023/12/13 08:39:16;;;;;;;;;;;;;;;8.18;100.00;99567.13;5111094;28;20331;-40
2023/12/13 08:41:41;;;;;;;;;;;;;;;8.20;100.00;99578.50;5116672;28;20296;-39
2023/12/13 08:44:07;;;;;;;;;;;;;;;8.22;100.00;99579.94;5116398;28;20396;-39
2023/12/13 08:46:32;;;;;;;;;;;;;;;8.21;100.00;99574.78;5124398;27;20389;-40
2023/12/13 08:48:57;;;;;;;;;;;;;;;8.17;100.00;99569.00;5125367;27;20287;-39
2023/12/13 08:51:23;;;;;;;;;;;;;;;8.20;100.00;99583.84;5119302;27;19926;-37
2023/12/13 08:53:49;;;;;;;;;;;;;;;8.26;100.00;99577.69;5120901;27;19919;-38
2023/12/13 08:56:14;;;;;;;;;;;;;;;8.35;100.00;99573.84;5120257;28;19920;-37
2023/12/13 08:58:39;;;;;;;;;;;;;;;8.28;100.00;99583.69;5116870;28;20464;-38
2023/12/13 09:01:05;;;;;;;;;;;;;;;8.27;100.00;99584.72;5116747;28;19928;-36
2023/12/13 09:03:30;;;;;;;;;;;;;;;8.18;100.00;99592.06;5119909;28;20011;-38
2023/12/13 09:05:55;;;;;;;;;;;;;;;8.22;100.00;99592.53;5116704;28;20384;-38
2023/12/13 09:08:21;;;;;;;;;;;;;;;8.19;100.00;99593.75;5119984;27;19928;-38
2023/12/13 09:10:46;;;;;;;;;;;;;;;8.25;100.00;99597.47;5114923;28;19916;-37
2023/12/13 09:13:11;;;;;;;;;;;;;;;8.31;100.00;99596.69;5118113;27;19938;-38
2023/12/13 09:15:37;;;;;;;;;;;;;;;8.37;100.00;99598.56;5112948;28;20329;-38
2023/12/13 09:18:02;;;;;;;;;;;;;;;8.49;100.00;99605.06;5114360;27;19920;-37
2023/12/13 09:20:27;;;;;;;;;;;;;;;8.53;100.00;99594.75;5114073;28;19920;-38
2023/12/13 09:22:53;;;;;;;;;;;;;;;8.54;100.00;99591.88;5113760;27;19923;-38
2023/12/13 09:25:18;;;;;;;;;;;;;;;8.66;100.00;99602.03;5112737;28;19923;-39
2023/12/13 09:27:44;;;;;;;;;;;;;;;8.70;100.00;99600.63;5114128;27;19926;-37
2023/12/13 09:30:09;;;;;;;;;;;;;;;8.70;100.00;99596.09;5113857;28;19920;-38
2023/12/13 09:32:34;;;;;;;;;;;;;;;8.67;100.00;99601.03;5113767;28;19968;-38
2023/12/13 09:35:00;;;;;;;;;;;;;;;8.61;100.00;99604.50;5113406;28;19966;-38
2023/12/13 09:37:25;;;;;;;;;;;;;;;8.56;100.00;99597.06;5113640;28;19973;-38
2023/12/13 09:39:50;;;;;;;;;;;;;;;8.49;100.00;99599.69;5113674;28;19920;-38
2023/12/13 09:42:15;;;;;;;;;;;;;;;8.49;100.00;99602.38;5113502;27;20010;-39
2023/12/13 09:44:41;;;;;;;;;;;;;;;8.51;100.00;99603.03;5118569;27;19967;-39
2023/12/13 09:47:06;;;;;;;;;;;;;;;8.53;100.00;99609.00;5113497;28;19951;-37
2023/12/13 09:49:32;;;;;;;;;;;;;;;8.56;100.00;99611.28;5127381;27;19927;-37
2023/12/13 09:51:58;;;;;;;;;;;;;;;8.54;100.00;99607.16;5102069;28;19916;-39
2023/12/13 09:54:24;;;;;;;;;;;;;;;8.45;100.00;99614.53;5102219;28;19943;-37
2023/12/13 09:56:50;;;;;;;;;;;;;;;8.53;100.00;99622.44;5113917;28;19919;-38
2023/12/13 09:59:15;;;;;;;;;;;;;;;8.50;100.00;99621.97;5113081;27;20310;-38
2023/12/13 10:01:42;;;;;;;;;;;;;;;8.51;100.00;99621.78;5108603;28;20327;-37
2023/12/13 10:04:07;;;;;;;;;;;;;;;8.50;100.00;99619.28;5107718;27;19920;-37
2023/12/13 10:06:32;;;;;;;;;;;;;;;8.48;100.00;99626.72;5113004;28;20305;-38
2023/12/13 10:08:57;;;;;;;;;;;;;;;8.52;100.00;99631.47;5112761;28;19923;-38
2023/12/13 10:11:23;;;;;;;;;;;;;;;8.51;100.00;99624.47;5113133;28;19973;-37
2023/12/13 10:13:48;;;;;;;;;;;;;;;8.54;100.00;99628.59;5112985;27;19912;-36
2023/12/13 10:16:13;;;;;;;;;;;;;;;8.52;100.00;99634.16;5113654;28;19927;-37
2023/12/13 10:18:41;;;;;;;;;;;;;;;8.49;100.00;99642.59;5112854;28;19920;-36
2023/12/13 10:21:08;;;;;;;;;;;;;;;8.55;100.00;99636.44;5113460;28;19916;-38
2023/12/13 10:23:33;;;;;;;;;;;;;;;8.54;100.00;99639.34;5108546;27;20367;-38
2023/12/13 10:25:59;;;;;;;;;;;;;;;8.56;100.00;99648.03;5092385;28;20006;-40
2023/12/13 10:28:24;;;;;;;;;;;;;;;8.59;100.00;99646.78;5110566;27;19928;-38
2023/12/13 10:30:49;;;;;;;;;;;;;;;8.59;100.00;99646.78;5113631;28;20010;-37
2023/12/13 10:33:14;;;;;;;;;;;;;;;8.66;100.00;99653.00;5114417;28;19923;-39
2023/12/13 10:35:41;;;;;;;;;;;;;;;8.65;100.00;99646.00;5113064;28;19942;-39
2023/12/13 10:38:06;;;;;;;;;;;;;;;8.69;100.00;99649.91;5084003;28;19919;-37
2023/12/13 10:40:31;;;;;;;;;;;;;;;8.66;100.00;99653.84;5088544;28;20282;-39
2023/12/13 10:42:57;;;;;;;;;;;;;;;8.71;100.00;99645.19;5113702;27;19938;-37
2023/12/13 10:45:22;;;;;;;;;;;;;;;8.78;100.00;99657.59;5114011;27;20301;-37
2023/12/13 10:47:47;;;;;;;;;;;;;;;8.74;100.00;99653.69;5110842;28;19920;-37
2023/12/13 10:50:13;;;;;;;;;;;;;;;8.73;100.00;99653.88;5108524;28;20156;-39
2023/12/13 10:52:38;;;;;;;;;;;;;;;8.73;100.00;99653.88;5107126;28;19987;-37
2023/12/13 10:55:05;;;;;;;;;;;;;;;8.76;100.00;99656.16;5102601;27;19916;-37
2023/12/13 10:57:30;;;;;;;;;;;;;;;8.85;100.00;99663.00;5111044;28;20369;-37
2023/12/13 10:59:55;;;;;;;;;;;;;;;8.88;100.00;99667.97;5097498;28;20045;-38
2023/12/13 11:02:21;;;;;;;;;;;;;;;8.86;100.00;99659.28;5110346;28;19990;-38
2023/12/13 11:04:46;;;;;;;;;;;;;;;8.86;100.00;99664.66;5112159;28;20018;-38
2023/12/13 11:07:11;;;;;;;;;;;;;;;8.88;100.00;99670.66;5112451;28;19916;-39
2023/12/13 11:09:48;;;;;;;;;;;;;;;8.93;100.00;99675.44;5110490;28;19920;-39
2023/12/13 11:12:18;;;;;;;;;;;;;;;8.90;100.00;99671.28;5117651;27;19926;-39
2023/12/13 11:14:46;;;;;;;;;;;;;;;8.90;100.00;99676.66;5137751;27;19919;-39
2023/12/13 11:17:12;;;;;;;;;;;;;;;8.94;100.00;99677.06;5134868;27;19915;-39
2023/12/13 11:19:38;;;;;;;;;;;;;;;8.95;100.00;99676.91;5116121;28;19916;-39
2023/12/13 11:22:06;;;;;;;;;;;;;;;9.00;100.00;99673.59;5112773;28;19961;-40
2023/12/13 11:24:36;;;;;;;;;;;;;;;8.99;100.00;99680.81;5113468;28;19920;-37
2023/12/13 11:27:07;;;;;;;;;;;;;;;9.04;100.00;99682.09;5113272;28;19969;-37
2023/12/13 11:29:33;;;;;;;;;;;;;;;9.02;100.00;99680.41;5108797;28;19974;-38
2023/12/13 11:31:59;;;;;;;;;;;;;;;8.91;100.00;99689.03;5108534;28;19923;-41
2023/12/13 11:34:41;;;;;;;;;;;;;;;8.93;100.00;99681.63;5109908;28;20390;-40
2023/12/13 11:37:06;;;;;;;;;;;;;;;8.96;100.00;99688.44;5111276;28;20098;-47
2023/12/13 11:39:32;;;;;;;;;;;;;;;8.96;100.00;99685.75;5111671;28;20409;-39
2023/12/13 11:41:58;;;;;;;;;;;;;;;8.92;100.00;99682.63;5112140;28;19932;-39
2023/12/13 11:44:26;;;;;;;;;;;;;;;8.92;100.00;99689.84;5111592;28;20385;-40
2023/12/13 11:46:54;;;;;;;;;;;;;;;8.93;100.00;99687.00;5111692;28;19919;-41
2023/12/13 11:49:20;;;;;;;;;;;;;;;8.95;100.00;99690.31;5111083;28;19923;-41
2023/12/13 11:51:47;;;;;;;;;;;;;;;8.97;100.00;99684.72;5104216;28;19969;-40
2023/12/13 11:54:12;;;;;;;;;;;;;;;9.01;100.00;99688.69;5109446;28;19995;-41
2023/12/13 11:56:40;;;;;;;;;;;;;;;9.02;100.00;99688.47;5109337;28;20549;-40
2023/12/13 11:59:05;;;;;;;;;;;;;;;9.05;100.00;99691.78;5105381;28;19927;-41
2023/12/13 12:01:30;;;;;;;;;;;;;;;9.07;100.00;99692.41;5109135;28;19923;-41
2023/12/13 12:03:55;;;;;;;;;;;;;;;9.08;100.00;99694.06;5111299;28;20010;-41
2023/12/13 12:06:21;;;;;;;;;;;;;;;9.11;100.00;99699.03;5114069;28;20008;-40
2023/12/13 12:08:47;;;;;;;;;;;;;;;9.11;100.00;99702.56;5112534;28;19924;-42
2023/12/13 12:11:13;;;;;;;;;;;;;;;9.11;100.00;99705.25;5111112;28;19931;-41
2023/12/13 12:13:40;;;;;;;;;;;;;;;9.13;100.00;99707.72;5111042;28;19920;-41
2023/12/13 12:16:05;;;;;;;;;;;;;;;9.14;100.00;99714.75;5110484;28;20508;-41
2023/12/13 12:18:31;;;;;;;;;;;;;;;9.17;100.00;99708.97;5112554;28;19923;-42
2023/12/13 12:20:56;;;;;;;;;;;;;;;9.22;100.00;99714.56;5112582;27;20452;-42
2023/12/13 12:23:22;;;;;;;;;;;;;;;9.24;100.00;99709.81;5119215;27;19919;-41
2023/12/13 12:25:47;;;;;;;;;;;;;;;9.26;100.00;99715.81;5132562;27;19923;-43
2023/12/13 12:28:12;;;;;;;;;;;;;;;9.30;100.00;99725.13;5111851;28;19988;-40
2023/12/13 12:30:43;;;;;;;;;;;;;;;9.30;100.00;99722.44;5112417;28;20374;-42
2023/12/13 12:33:09;;;;;;;;;;;;;;;9.30;100.00;99725.13;5113316;28;19924;-41
2023/12/13 12:35:34;;;;;;;;;;;;;;;9.30;100.00;99722.44;5113532;27;20342;-43
2023/12/13 12:38:00;;;;;;;;;;;;;;;9.30;100.00;99730.50;5112190;28;19942;-41